createdAt,value
2022-10-24T00:01:16.521Z,5.18
2022-10-24T00:03:43.717Z,7.53
2022-10-24T00:06:12.282Z,7.28
2022-10-24T00:08:40.317Z,6.72
2022-10-24T00:11:13.396Z,7.70
2022-10-24T00:13:41.356Z,6.40
2022-10-24T00:16:08.995Z,8.95
2022-10-24T00:18:35.880Z,8.30
2022-10-24T00:21:02.780Z,6.53
2022-10-24T00:23:29.487Z,5.78
2022-10-24T00:25:56.595Z,5.72
2022-10-24T00:28:23.248Z,6.88
2022-10-24T00:30:52.967Z,5.43
2022-10-24T00:33:19.832Z,6.55
2022-10-24T00:35:46.878Z,11.18
2022-10-24T00:38:13.732Z,10.05
2022-10-24T00:40:40.784Z,10.45
2022-10-24T00:43:18.594Z,7.65
2022-10-24T00:45:50.950Z,11.90
2022-10-24T00:48:57.461Z,9.18
2022-10-24T00:51:31.872Z,6.70
2022-10-24T00:54:03.766Z,4.65
2022-10-24T00:56:34.396Z,6.65
2022-10-24T00:59:03.920Z,8.05
2022-10-24T01:01:31.253Z,6.20
2022-10-24T01:03:58.169Z,7.00
2022-10-24T01:06:53.542Z,15.88
2022-10-24T01:09:40.338Z,6.35
2022-10-24T01:12:11.659Z,9.65
2022-10-24T01:15:10.260Z,5.82
2022-10-24T01:18:06.222Z,6.80
2022-10-24T01:20:57.451Z,5.13
2022-10-24T01:23:42.148Z,6.32
2022-10-24T01:26:46.673Z,9.02
2022-10-24T01:29:36.657Z,7.53
2022-10-24T01:32:14.966Z,7.75
2022-10-24T01:34:48.458Z,7.10
2022-10-24T01:37:25.675Z,8.25
2022-10-24T01:39:59.586Z,8.57
2022-10-24T01:42:29.920Z,7.50
2022-10-24T01:44:59.541Z,11.80
2022-10-24T01:47:35.084Z,7.50
2022-10-24T01:50:06.042Z,6.90
2022-10-24T01:52:37.320Z,7.88
2022-10-24T01:55:05.676Z,9.02
2022-10-24T01:57:34.305Z,9.85
2022-10-24T02:00:01.984Z,12.38
2022-10-24T02:02:34.595Z,7.75
2022-10-24T02:05:04.726Z,7.70
2022-10-24T02:07:33.768Z,8.98
2022-10-24T02:10:07.603Z,14.27
2022-10-24T02:12:37.371Z,7.20
2022-10-24T02:15:11.177Z,8.15
2022-10-24T02:17:37.944Z,8.35
2022-10-24T02:20:05.330Z,12.63
2022-10-24T02:22:46.701Z,8.32
2022-10-24T02:25:24.247Z,10.88
2022-10-24T02:27:57.522Z,5.72
2022-10-24T02:30:26.211Z,6.97
2022-10-24T02:32:58.663Z,10.02
2022-10-24T02:35:35.800Z,9.75
2022-10-24T02:38:22.702Z,7.00
2022-10-24T02:40:50.467Z,7.35
2022-10-24T02:43:19.016Z,7.53
2022-10-24T02:45:47.156Z,6.82
2022-10-24T02:48:18.115Z,9.60
2022-10-24T02:50:45.331Z,6.88
2022-10-24T02:53:16.871Z,9.40
2022-10-24T02:55:43.626Z,9.68
2022-10-24T02:58:10.406Z,14.25
2022-10-24T03:00:37.166Z,8.18
2022-10-24T03:03:04.042Z,8.43
2022-10-24T03:05:30.709Z,12.55
2022-10-24T03:07:57.426Z,10.25
2022-10-24T03:10:24.131Z,16.95
2022-10-24T03:12:50.944Z,14.93
2022-10-24T03:15:18.470Z,27.67
2022-10-24T03:17:47.773Z,9.82
2022-10-24T03:20:15.231Z,6.13
2022-10-24T03:22:41.959Z,9.98
2022-10-24T03:25:09.108Z,9.35
2022-10-24T03:27:35.802Z,9.32
2022-10-24T03:30:02.729Z,7.07
2022-10-24T03:32:29.447Z,12.40
2022-10-24T03:34:56.161Z,12.32
2022-10-24T03:37:22.865Z,7.55
2022-10-24T03:39:49.608Z,6.13
2022-10-24T03:42:16.292Z,11.15
2022-10-24T03:44:43.062Z,9.55
2022-10-24T03:47:10.094Z,7.50
2022-10-24T03:49:36.863Z,16.98
2022-10-24T03:52:03.878Z,11.73
2022-10-24T03:54:30.874Z,14.65
2022-10-24T03:56:57.627Z,18.25
2022-10-24T03:59:24.392Z,17.48
2022-10-24T04:01:51.225Z,14.63
2022-10-24T04:04:18.131Z,18.42
2022-10-24T04:06:44.858Z,19.25
2022-10-24T04:09:12.355Z,20.48
2022-10-24T04:11:39.144Z,20.33
2022-10-24T04:14:05.882Z,27.60
2022-10-24T04:16:34.937Z,22.92
2022-10-24T04:19:02.204Z,19.63
2022-10-24T04:21:28.901Z,16.85
2022-10-24T04:23:55.853Z,17.92
2022-10-24T04:26:23.373Z,16.55
2022-10-24T04:28:50.897Z,7.47
2022-10-24T04:31:20.897Z,12.98
2022-10-24T04:33:50.402Z,12.65
2022-10-24T04:36:17.400Z,14.52
2022-10-24T04:38:44.144Z,13.57
2022-10-24T04:41:12.158Z,12.32
2022-10-24T04:43:39.600Z,12.82
2022-10-24T04:46:06.867Z,15.63
2022-10-24T04:48:33.927Z,11.18
2022-10-24T04:51:00.665Z,11.38
2022-10-24T04:53:27.599Z,10.30
2022-10-24T04:55:54.260Z,11.25
2022-10-24T04:58:21.095Z,14.23
2022-10-24T05:00:50.141Z,9.70
2022-10-24T05:03:18.073Z,8.15
2022-10-24T05:05:45.338Z,8.60
2022-10-24T05:08:12.428Z,7.82
2022-10-24T05:10:39.407Z,11.00
2022-10-24T05:13:06.288Z,11.73
2022-10-24T05:15:33.095Z,8.20
2022-10-24T05:17:59.890Z,11.43
2022-10-24T05:20:27.789Z,11.88
2022-10-24T05:22:54.666Z,9.68
2022-10-24T05:25:21.914Z,10.15
2022-10-24T05:27:48.758Z,10.65
2022-10-24T05:30:15.767Z,9.82
2022-10-24T05:32:42.751Z,11.23
2022-10-24T05:35:10.087Z,8.05
2022-10-24T05:37:37.360Z,8.63
2022-10-24T05:40:05.238Z,14.52
2022-10-24T05:42:31.941Z,11.60
2022-10-24T05:44:58.677Z,10.10
2022-10-24T05:47:28.378Z,13.38
2022-10-24T05:49:56.113Z,6.85
2022-10-24T05:52:22.904Z,7.05
2022-10-24T05:54:55.754Z,6.38
2022-10-24T05:57:33.625Z,9.65
2022-10-24T06:00:00.830Z,8.45
2022-10-24T06:02:28.254Z,7.15
2022-10-24T06:04:57.173Z,6.10
2022-10-24T06:07:23.949Z,8.95
2022-10-24T06:09:50.682Z,11.20
2022-10-24T06:12:17.457Z,7.40
2022-10-24T06:14:44.823Z,13.52
2022-10-24T06:17:12.121Z,8.98
2022-10-24T06:19:39.322Z,7.85
2022-10-24T06:22:06.764Z,17.25
2022-10-24T06:24:38.026Z,7.03
2022-10-24T06:27:07.183Z,7.07
2022-10-24T06:29:34.858Z,11.07
2022-10-24T06:32:02.013Z,10.80
2022-10-24T06:34:28.921Z,8.57
2022-10-24T06:36:55.711Z,11.27
2022-10-24T06:39:22.584Z,7.10
2022-10-24T06:41:49.544Z,7.00
2022-10-24T06:44:16.274Z,11.05
2022-10-24T06:46:44.535Z,8.18
2022-10-24T06:49:13.262Z,12.25
2022-10-24T06:51:41.006Z,9.35
2022-10-24T06:54:07.723Z,9.32
2022-10-24T06:56:34.672Z,10.43
2022-10-24T06:59:01.460Z,10.05
2022-10-24T07:01:28.630Z,6.43
2022-10-24T07:03:55.413Z,7.32
2022-10-24T07:06:25.971Z,13.43
2022-10-24T07:08:54.942Z,11.27
2022-10-24T07:11:21.908Z,9.13
2022-10-24T07:13:49.312Z,8.75
2022-10-24T07:16:16.756Z,4.60
2022-10-24T07:18:44.274Z,10.20
2022-10-24T07:21:15.489Z,9.65
2022-10-24T07:23:42.394Z,11.77
2022-10-24T07:26:11.484Z,11.90
2022-10-24T07:28:39.728Z,10.73
2022-10-24T07:31:07.769Z,10.35
2022-10-24T07:33:36.710Z,10.02
2022-10-24T07:36:04.131Z,9.93
2022-10-24T07:38:30.905Z,12.32
2022-10-24T07:40:57.605Z,11.40
2022-10-24T07:43:24.579Z,7.07
2022-10-24T07:45:52.314Z,11.27
2022-10-24T07:48:19.926Z,10.32
2022-10-24T07:50:48.616Z,14.00
2022-10-24T07:53:15.450Z,19.30
2022-10-24T07:55:43.631Z,15.30
2022-10-24T07:58:11.820Z,12.45
2022-10-24T08:00:44.023Z,18.55
2022-10-24T08:03:11.854Z,18.85
2022-10-24T08:05:41.900Z,16.05
2022-10-24T08:08:27.535Z,23.08
2022-10-24T08:10:56.027Z,12.50
2022-10-24T08:13:22.816Z,21.58
2022-10-24T08:15:49.581Z,19.13
2022-10-24T08:18:16.526Z,21.63
2022-10-24T08:20:43.409Z,17.13
2022-10-24T08:23:10.145Z,18.08
2022-10-24T08:25:41.013Z,14.50
2022-10-24T08:28:09.122Z,17.30
2022-10-24T08:30:36.132Z,12.57
2022-10-24T08:33:02.967Z,16.65
2022-10-24T08:35:29.809Z,20.67
2022-10-24T08:37:56.738Z,14.77
2022-10-24T08:40:23.757Z,12.43
2022-10-24T08:42:50.640Z,24.45
2022-10-24T08:45:48.224Z,21.95
2022-10-24T08:48:21.777Z,18.33
2022-10-24T08:50:52.642Z,17.67
2022-10-24T08:53:28.842Z,18.65
2022-10-24T08:55:58.443Z,11.85
2022-10-24T08:58:37.153Z,16.63
2022-10-24T09:01:13.355Z,9.93
2022-10-24T09:04:01.605Z,6.40
2022-10-24T09:06:31.582Z,9.88
2022-10-24T09:09:19.714Z,10.45
2022-10-24T09:11:56.652Z,10.75
2022-10-24T09:14:27.415Z,9.55
2022-10-24T09:16:58.902Z,15.88
2022-10-24T09:19:28.322Z,10.40
2022-10-24T09:21:57.549Z,8.77
2022-10-24T09:24:35.095Z,12.00
2022-10-24T09:27:04.568Z,9.98
2022-10-24T09:29:33.535Z,5.93
2022-10-24T09:32:01.549Z,6.30
2022-10-24T09:34:28.327Z,8.52
2022-10-24T09:36:55.425Z,12.07
2022-10-24T09:39:26.774Z,12.15
2022-10-24T09:41:54.041Z,9.02
2022-10-24T09:44:32.162Z,10.23
2022-10-24T09:46:59.813Z,10.88
2022-10-24T09:49:33.951Z,15.63
2022-10-24T09:52:20.153Z,8.07
2022-10-24T09:55:03.166Z,9.98
2022-10-24T09:57:39.776Z,10.70
2022-10-24T10:00:07.826Z,12.07
2022-10-24T10:02:35.037Z,10.55
2022-10-24T10:05:04.793Z,7.47
2022-10-24T10:07:43.163Z,8.38
2022-10-24T10:10:32.222Z,21.20
2022-10-24T10:13:19.859Z,13.48
2022-10-24T10:15:50.409Z,17.95
2022-10-24T10:18:29.033Z,25.08
2022-10-24T10:21:01.949Z,19.67
2022-10-24T10:23:43.521Z,9.23
2022-10-24T10:26:23.651Z,8.30
2022-10-24T10:28:55.134Z,9.52
2022-10-24T10:31:41.665Z,7.80
2022-10-24T10:34:22.974Z,15.57
2022-10-24T10:37:14.615Z,14.27
2022-10-24T10:40:26.226Z,16.10
2022-10-24T10:43:14.195Z,14.02
2022-10-24T10:45:51.155Z,13.88
2022-10-24T10:48:47.193Z,19.38
2022-10-24T10:52:12.602Z,10.60
2022-10-24T10:55:17.109Z,13.63
2022-10-24T10:57:59.247Z,11.55
2022-10-24T11:00:51.021Z,13.45
2022-10-24T11:03:47.725Z,8.55
2022-10-24T11:06:14.472Z,7.95
2022-10-24T11:08:50.535Z,9.00
2022-10-24T11:11:27.709Z,9.40
2022-10-24T11:14:13.585Z,10.75
2022-10-24T11:16:42.885Z,6.53
2022-10-24T11:19:26.172Z,10.10
2022-10-24T11:21:54.824Z,8.35
2022-10-24T11:24:24.204Z,6.25
2022-10-24T11:27:21.528Z,9.65
2022-10-24T11:29:57.041Z,10.48
2022-10-24T11:32:45.264Z,9.02
2022-10-24T11:35:24.336Z,8.10
2022-10-24T11:37:56.942Z,8.88
2022-10-24T11:40:26.802Z,9.13
2022-10-24T11:43:26.064Z,8.80
2022-10-24T11:46:04.143Z,5.80
2022-10-24T11:48:40.601Z,7.80
2022-10-24T11:51:17.725Z,7.20
2022-10-24T11:53:58.805Z,10.45
2022-10-24T11:56:43.058Z,9.73
2022-10-24T11:59:24.368Z,7.53
2022-10-24T12:02:22.400Z,5.68
2022-10-24T12:05:19.370Z,8.82
2022-10-24T12:08:02.250Z,9.02
2022-10-24T12:10:59.520Z,8.88
2022-10-24T12:13:32.805Z,9.07
2022-10-24T12:16:05.428Z,8.75
2022-10-24T12:18:43.200Z,7.90
2022-10-24T12:21:13.812Z,7.10
2022-10-24T12:23:42.594Z,8.30
2022-10-24T12:26:19.365Z,5.57
2022-10-24T12:28:57.861Z,5.45
2022-10-24T12:31:37.435Z,7.90
2022-10-24T12:34:19.523Z,5.43
2022-10-24T12:37:14.280Z,5.15
2022-10-24T12:39:47.125Z,6.18
2022-10-24T12:42:23.267Z,6.45
2022-10-24T12:45:27.440Z,11.25
2022-10-24T12:47:57.040Z,8.98
2022-10-24T12:50:23.710Z,6.05
2022-10-24T12:53:31.918Z,6.75
2022-10-24T12:55:58.587Z,4.50
2022-10-24T12:58:34.280Z,3.38
2022-10-24T13:01:07.919Z,6.10
2022-10-24T13:03:53.452Z,13.07
2022-10-24T13:06:46.620Z,19.10
2022-10-24T13:09:13.280Z,7.70
2022-10-24T13:12:15.196Z,9.38
2022-10-24T13:14:53.902Z,9.90
2022-10-24T13:17:45.015Z,5.18
2022-10-24T13:20:26.386Z,4.80
2022-10-24T13:23:02.958Z,4.10
2022-10-24T13:25:38.732Z,5.93
2022-10-24T13:28:20.151Z,10.18
2022-10-24T13:30:49.672Z,4.35
2022-10-24T13:33:36.428Z,4.78
2022-10-24T13:36:09.420Z,5.57
2022-10-24T13:38:55.687Z,4.22
2022-10-24T13:41:33.958Z,5.07
2022-10-24T13:44:10.306Z,3.67
2022-10-24T13:47:01.439Z,6.03
2022-10-24T13:49:33.139Z,3.45
2022-10-24T13:52:39.868Z,6.60
2022-10-24T13:55:22.243Z,2.67
2022-10-24T13:58:03.625Z,2.35
2022-10-24T14:00:37.185Z,5.07
2022-10-24T14:03:11.644Z,4.82
2022-10-24T14:08:09.675Z,6.50
2022-10-24T14:10:38.040Z,5.95
2022-10-24T14:13:05.166Z,9.07
2022-10-24T14:15:33.434Z,12.18
2022-10-24T14:18:00.206Z,8.13
2022-10-24T14:20:36.299Z,6.82
2022-10-24T14:23:15.258Z,4.88
2022-10-24T14:25:42.011Z,4.72
2022-10-24T14:28:16.870Z,7.07
2022-10-24T14:30:54.877Z,4.65
2022-10-24T14:33:28.215Z,3.67
2022-10-24T14:35:58.231Z,7.72
2022-10-24T14:38:27.766Z,3.75
2022-10-24T14:41:07.998Z,4.68
2022-10-24T14:43:40.020Z,3.83
2022-10-24T14:46:13.206Z,3.92
2022-10-24T14:48:43.043Z,5.00
2022-10-24T14:51:26.482Z,3.38
2022-10-24T14:53:53.588Z,2.28
2022-10-24T14:56:24.756Z,4.15
2022-10-24T14:58:53.269Z,3.05
2022-10-24T15:01:23.663Z,3.83
2022-10-24T15:04:02.043Z,4.28
2022-10-24T15:06:43.670Z,5.00
2022-10-24T15:09:10.314Z,3.08
2022-10-24T15:11:41.211Z,15.93
2022-10-24T15:14:49.161Z,4.70
2022-10-24T15:17:18.893Z,3.53
2022-10-24T15:19:47.532Z,6.13
2022-10-24T15:22:37.558Z,4.60
2022-10-24T15:25:08.045Z,4.22
2022-10-24T15:27:43.855Z,4.53
2022-10-24T15:30:22.134Z,6.38
2022-10-24T15:32:50.753Z,5.80
2022-10-24T15:35:18.485Z,4.78
2022-10-24T15:38:10.563Z,3.53
2022-10-24T15:40:42.319Z,6.90
2022-10-24T15:43:12.478Z,2.65
2022-10-24T15:45:39.296Z,4.55
2022-10-24T15:48:06.326Z,4.97
2022-10-24T15:50:34.515Z,7.57
2022-10-24T15:53:03.605Z,3.53
2022-10-24T15:55:31.527Z,2.70
2022-10-24T15:58:01.526Z,3.50
2022-10-24T16:00:28.260Z,3.40
2022-10-24T16:02:58.002Z,4.93
2022-10-24T16:05:29.542Z,2.97
2022-10-24T16:07:56.316Z,6.97
2022-10-24T16:10:23.806Z,5.20
2022-10-24T16:12:51.442Z,2.97
2022-10-24T16:15:26.721Z,4.70
2022-10-24T16:17:53.559Z,3.25
2022-10-24T16:20:20.453Z,3.63
2022-10-24T16:22:47.560Z,5.15
2022-10-24T16:25:23.595Z,7.53
2022-10-24T16:27:50.882Z,4.93
2022-10-24T16:30:20.240Z,8.45
2022-10-24T16:32:47.651Z,10.77
2022-10-24T16:35:25.203Z,7.03
2022-10-24T16:37:56.604Z,5.10
2022-10-24T16:40:24.266Z,8.35
2022-10-24T16:42:52.835Z,8.57
2022-10-24T16:45:20.087Z,11.63
2022-10-24T16:47:48.016Z,4.38
2022-10-24T16:50:17.746Z,3.83
2022-10-24T16:52:45.026Z,9.93
2022-10-24T16:55:13.565Z,6.18
2022-10-24T16:57:40.245Z,6.25
2022-10-24T17:00:07.551Z,2.78
2022-10-24T17:02:34.334Z,8.32
2022-10-24T17:05:01.014Z,5.93
2022-10-24T17:07:27.778Z,3.17
2022-10-24T17:09:54.524Z,3.03
2022-10-24T17:12:24.895Z,3.08
2022-10-24T17:14:51.551Z,3.15
2022-10-24T17:17:18.279Z,3.20
2022-10-24T17:19:48.235Z,2.75
2022-10-24T17:22:15.232Z,5.18
2022-10-24T17:24:42.360Z,4.13
2022-10-24T17:27:13.833Z,7.47
2022-10-24T17:29:41.777Z,3.00
2022-10-24T17:32:10.776Z,5.97
2022-10-24T17:34:38.118Z,3.67
2022-10-24T17:37:20.106Z,3.13
2022-10-24T17:39:46.889Z,3.50
2022-10-24T17:42:13.772Z,2.08
2022-10-24T17:44:40.933Z,3.78
2022-10-24T17:47:08.012Z,3.42
2022-10-24T17:49:34.787Z,4.10
2022-10-24T17:52:01.685Z,4.35
2022-10-24T17:54:28.413Z,5.63
2022-10-24T17:56:55.120Z,9.02
2022-10-24T17:59:24.670Z,3.03
2022-10-24T18:01:51.570Z,2.03
2022-10-24T18:04:18.674Z,5.47
2022-10-24T18:06:45.450Z,3.55
2022-10-24T18:09:12.452Z,1.88
2022-10-24T18:11:39.977Z,7.70
2022-10-24T18:14:06.924Z,5.70
2022-10-24T18:16:33.734Z,2.90
2022-10-24T18:19:00.466Z,6.70
2022-10-24T18:21:28.451Z,4.97
2022-10-24T18:23:55.621Z,3.45
2022-10-24T18:26:25.242Z,3.08
2022-10-24T18:28:53.564Z,4.55
2022-10-24T18:31:26.176Z,3.95
2022-10-24T18:33:53.456Z,4.05
2022-10-24T18:36:24.381Z,3.72
2022-10-24T18:38:53.661Z,3.40
2022-10-24T18:41:33.636Z,6.63
2022-10-24T18:44:03.138Z,6.22
2022-10-24T18:46:30.604Z,3.90
2022-10-24T18:48:57.594Z,5.53
2022-10-24T18:51:44.430Z,3.63
2022-10-24T18:54:17.204Z,5.97
2022-10-24T18:56:44.136Z,4.50
2022-10-24T18:59:20.827Z,7.65
2022-10-24T19:02:01.454Z,5.95
2022-10-24T19:04:28.399Z,5.10
2022-10-24T19:06:58.721Z,4.25
2022-10-24T19:09:26.523Z,6.28
2022-10-24T19:11:53.430Z,6.47
2022-10-24T19:14:21.025Z,5.25
2022-10-24T19:16:49.893Z,5.95
2022-10-24T19:19:25.983Z,5.70
2022-10-24T19:21:53.213Z,6.95
2022-10-24T19:24:20.118Z,8.57
2022-10-24T19:26:47.017Z,18.30
2022-10-24T19:29:14.165Z,15.43
2022-10-24T19:31:40.918Z,13.27
2022-10-24T19:34:10.313Z,8.45
2022-10-24T19:36:37.739Z,10.02
2022-10-24T19:39:04.668Z,7.88
2022-10-24T19:41:31.411Z,5.13
2022-10-24T19:43:58.200Z,9.82
2022-10-24T19:46:24.965Z,6.30
2022-10-24T19:48:53.141Z,5.45
2022-10-24T19:51:20.373Z,5.32
2022-10-24T19:53:48.106Z,3.03
2022-10-24T19:56:23.948Z,5.18
2022-10-24T19:58:52.582Z,7.07
2022-10-24T20:01:23.141Z,4.28
2022-10-24T20:03:51.308Z,4.28
2022-10-24T20:06:19.593Z,3.88
2022-10-24T20:08:47.426Z,4.85
2022-10-24T20:11:20.191Z,3.03
2022-10-24T20:13:48.223Z,5.20
2022-10-24T20:16:15.001Z,9.20
2022-10-24T20:18:43.687Z,8.75
2022-10-24T20:21:12.866Z,5.13
2022-10-24T20:23:42.986Z,6.38
2022-10-24T20:26:13.210Z,6.55
2022-10-24T20:28:43.277Z,13.50
2022-10-24T20:31:22.618Z,7.05
2022-10-24T20:33:50.292Z,10.98
2022-10-24T20:36:17.583Z,13.70
2022-10-24T20:38:44.395Z,8.77
2022-10-24T20:41:11.204Z,7.30
2022-10-24T20:43:38.063Z,9.77
2022-10-24T20:46:05.979Z,16.30
2022-10-24T20:48:33.764Z,13.43
2022-10-24T20:51:09.264Z,9.10
2022-10-24T20:53:36.018Z,7.82
2022-10-24T20:56:04.911Z,8.73
2022-10-24T20:58:31.842Z,14.07
2022-10-24T21:00:58.606Z,12.20
2022-10-24T21:03:25.372Z,10.70
2022-10-24T21:05:52.137Z,7.40
2022-10-24T21:08:18.830Z,5.50
2022-10-24T21:10:45.693Z,3.65
2022-10-24T21:13:12.447Z,5.20
2022-10-24T21:15:39.305Z,3.03
2022-10-24T21:18:06.136Z,2.33
2022-10-24T21:20:32.907Z,5.38
2022-10-24T21:22:59.684Z,3.88
2022-10-24T21:25:26.386Z,2.40
2022-10-24T21:27:53.107Z,3.35
2022-10-24T21:30:19.979Z,5.57
2022-10-24T21:32:46.986Z,5.72
2022-10-24T21:35:13.793Z,3.05
2022-10-24T21:37:40.629Z,6.03
2022-10-24T21:40:07.771Z,3.30
2022-10-24T21:42:34.517Z,4.70
2022-10-24T21:45:01.183Z,4.43
2022-10-24T21:47:28.406Z,3.13
2022-10-24T21:49:55.210Z,2.33
2022-10-24T21:52:21.998Z,3.65
2022-10-24T21:54:48.701Z,3.30
2022-10-24T21:57:15.449Z,4.03
2022-10-24T21:59:42.179Z,4.28
2022-10-24T22:02:09.368Z,2.00
2022-10-24T22:04:36.215Z,5.47
2022-10-24T22:07:03.180Z,2.78
2022-10-24T22:09:30.103Z,2.58
2022-10-24T22:11:58.118Z,4.55
2022-10-24T22:14:25.589Z,3.00
2022-10-24T22:16:52.610Z,5.95
2022-10-24T22:19:19.669Z,4.18
2022-10-24T22:21:48.610Z,5.25
2022-10-24T22:24:23.286Z,3.28
2022-10-24T22:26:51.214Z,5.60
2022-10-24T22:29:21.024Z,5.78
2022-10-24T22:31:47.995Z,3.45
2022-10-24T22:34:24.121Z,7.50
2022-10-24T22:37:12.764Z,4.82
2022-10-24T22:39:40.022Z,3.75
2022-10-24T22:42:13.564Z,3.22
2022-10-24T22:44:43.543Z,3.70
2022-10-24T22:47:13.098Z,4.65
2022-10-24T22:49:58.554Z,4.18
2022-10-24T22:52:25.778Z,2.42
2022-10-24T22:54:52.914Z,4.97
2022-10-24T22:57:20.251Z,4.93
2022-10-24T22:59:47.480Z,5.05
2022-10-24T23:02:27.776Z,8.77
2022-10-24T23:05:03.995Z,6.47
2022-10-24T23:07:40.910Z,12.88
2022-10-24T23:10:13.838Z,3.13
2022-10-24T23:12:42.175Z,4.72
2022-10-24T23:15:13.386Z,4.07
2022-10-24T23:17:40.597Z,5.40
2022-10-24T23:20:40.081Z,3.95
2022-10-24T23:23:16.752Z,4.18
2022-10-24T23:26:01.823Z,3.55
2022-10-24T23:28:46.158Z,3.08
2022-10-24T23:31:13.114Z,4.80
2022-10-24T23:33:40.143Z,6.60
2022-10-24T23:36:07.411Z,2.40
2022-10-24T23:38:34.515Z,4.55
2022-10-24T23:41:01.611Z,5.93
2022-10-24T23:43:28.635Z,5.25
2022-10-24T23:46:05.151Z,4.00
2022-10-24T23:48:52.510Z,3.60
2022-10-24T23:51:31.177Z,4.85
2022-10-24T23:53:58.746Z,4.30
2022-10-24T23:56:27.735Z,4.53
2022-10-24T23:58:55.206Z,3.92
